Time;durP1;ratioP1;P1;durP2;ratioP2;P2;SDS_P1;SDS_P2;PMS_P1;PMS_P2;Temp;Humidity;BMP_temperature;BMP_pressure;BME280_temperature;BME280_humidity;BME280_pressure;Samples;Min_cycle;Max_cycle;Signal;HPM_P1;HPM_P2
2023/06/01 00:02:09;;;;;;;12.25;9.82;;;;;;;-144.30;86.18;85177.75;5133487;27;20236;-55
2023/06/01 00:04:39;;;;;;;11.00;9.52;;;;;;;-144.30;86.33;85173.78;5133648;27;20194;-55
2023/06/01 00:07:07;;;;;;;10.80;9.68;;;;;;;-144.30;86.25;85215.53;5133424;27;20198;-59
2023/06/01 00:09:34;;;;;;;13.27;9.30;;;;;;;-144.30;85.54;85197.66;5133521;27;20193;-59
2023/06/01 00:12:02;;;;;;;9.05;8.40;;;;;;;-144.30;85.16;85217.53;5133829;27;20590;-59
2023/06/01 00:14:29;;;;;;;9.63;8.63;;;;;;;-144.30;84.79;85199.63;5133688;27;20194;-59
2023/06/01 00:16:57;;;;;;;11.68;8.25;;;;;;;-144.30;84.63;85209.56;5133069;27;20198;-59
2023/06/01 00:19:25;;;;;;;11.45;8.63;;;;;;;-144.30;84.75;85165.84;5133491;27;20228;-59
2023/06/01 00:21:53;;;;;;;8.57;7.78;;;;;;;-144.30;84.63;85185.72;5133448;27;20690;-58
2023/06/01 00:24:20;;;;;;;14.30;8.25;;;;;;;-144.30;84.35;85191.69;5133281;27;20749;-59
2023/06/01 00:26:47;;;;;;;13.00;9.10;;;;;;;-144.30;84.58;85201.63;5133046;27;20625;-55
2023/06/01 00:29:15;;;;;;;10.57;8.80;;;;;;;-144.30;84.00;85207.59;5133017;27;20185;-55
2023/06/01 00:31:42;;;;;;;10.60;8.82;;;;;;;-144.30;84.02;85241.38;5132982;27;20630;-54
2023/06/01 00:34:09;;;;;;;9.65;8.32;;;;;;;-144.30;83.85;85239.38;5132812;27;20204;-58
2023/06/01 00:36:36;;;;;;;9.32;8.20;;;;;;;-144.30;84.14;85219.50;5133063;27;20201;-59
2023/06/01 00:39:03;;;;;;;10.75;9.55;;;;;;;-144.30;84.48;85213.53;5133337;27;20327;-59
2023/06/01 00:41:30;;;;;;;9.35;8.50;;;;;;;-144.30;84.97;85255.28;5133176;27;20663;-59
2023/06/01 00:43:57;;;;;;;9.90;8.40;;;;;;;-144.30;85.70;85253.31;5132658;27;20686;-59
2023/06/01 00:46:26;;;;;;;11.25;8.88;;;;;;;-144.30;86.66;85312.94;5132782;27;20233;-55
2023/06/01 00:48:53;;;;;;;11.07;9.20;;;;;;;-144.30;87.19;85306.97;5133049;27;20194;-59
2023/06/01 00:51:21;;;;;;;10.48;8.50;;;;;;;-144.30;87.60;85312.94;5132807;27;20197;-58
2023/06/01 00:53:48;;;;;;;9.63;8.65;;;;;;;-144.30;88.07;85285.09;5132797;27;20738;-59
2023/06/01 00:56:15;;;;;;;13.98;9.68;;;;;;;-144.30;88.35;85285.09;5132531;27;20202;-59
2023/06/01 00:58:43;;;;;;;12.93;10.13;;;;;;;-144.30;88.84;85340.78;5132489;27;20608;-59
2023/06/01 01:01:18;;;;;;;10.45;9.02;;;;;;;-144.30;89.27;85312.94;5132464;27;20198;-59
2023/06/01 01:03:49;;;;;;;9.48;8.40;;;;;;;-144.30;89.10;85332.81;5132377;27;20205;-59
2023/06/01 01:06:25;;;;;;;10.32;8.93;;;;;;;-144.30;89.01;85299.03;5132365;27;20198;-55
2023/06/01 01:09:08;;;;;;;9.15;8.20;;;;;;;-144.30;89.03;85277.16;5132419;27;20197;-59
2023/06/01 01:11:41;;;;;;;12.55;8.77;;;;;;;-144.30;88.38;85336.78;5132548;27;20194;-59
2023/06/01 01:14:21;;;;;;;10.32;8.45;;;;;;;-144.30;88.44;85277.16;5132212;27;20233;-55
2023/06/01 01:16:53;;;;;;;10.33;9.30;;;;;;;-144.30;88.55;85291.06;5132183;27;20253;-55
2023/06/01 01:19:51;;;;;;;8.95;7.97;;;;;;;-144.30;88.81;85332.81;5132014;27;20312;-54
2023/06/01 01:22:31;;;;;;;8.68;7.88;;;;;;;-144.30;88.79;85308.97;5132298;27;20573;-55
2023/06/01 01:25:21;;;;;;;12.23;7.55;;;;;;;-144.30;88.97;85308.97;5131937;27;20194;-59
2023/06/01 01:28:07;;;;;;;9.00;8.13;;;;;;;-144.30;89.09;85368.59;5131769;27;20200;-59
2023/06/01 01:30:38;;;;;;;9.77;8.57;;;;;;;-144.30;89.54;85346.72;5132178;27;20198;-60
2023/06/01 01:33:05;;;;;;;9.15;7.93;;;;;;;-144.30;89.30;85297.03;5132294;27;20200;-59
2023/06/01 01:35:34;;;;;;;11.45;7.90;;;;;;;-144.30;90.13;85384.50;5131778;27;20197;-58
2023/06/01 01:38:00;;;;;;;11.98;7.80;;;;;;;-144.30;90.41;85344.75;5131018;27;20193;-58
2023/06/01 01:40:27;;;;;;;7.97;7.17;;;;;;;-144.30;91.00;85376.56;5131963;27;20198;-59
2023/06/01 01:42:56;;;;;;;11.77;8.70;;;;;;;-144.30;90.92;85384.50;5131714;27;20189;-59
2023/06/01 01:45:24;;;;;;;8.15;7.45;;;;;;;-144.30;91.20;85384.50;5131726;27;20190;-59
2023/06/01 01:48:02;;;;;;;8.20;7.30;;;;;;;-144.30;91.34;85408.34;5131406;27;20240;-59
2023/06/01 01:50:39;;;;;;;8.97;8.07;;;;;;;-144.30;91.70;85388.47;5131727;27;20575;-55
2023/06/01 01:53:10;;;;;;;9.60;8.40;;;;;;;-144.30;92.13;85396.44;5131920;27;20190;-55
2023/06/01 01:55:37;;;;;;;9.53;7.87;;;;;;;-144.30;92.82;85420.28;5131889;27;20663;-59
2023/06/01 01:58:05;;;;;;;13.47;7.67;;;;;;;-144.30;93.07;85183.72;5131338;27;20190;-59
2023/06/01 02:00:32;;;;;;;10.47;7.70;;;;;;;-144.30;93.33;85442.16;5131567;27;20185;-59
2023/06/01 02:03:01;;;;;;;11.50;8.23;;;;;;;-144.30;93.17;85400.41;5131239;27;20750;-54
2023/06/01 02:05:28;;;;;;;9.00;8.10;;;;;;;-144.30;92.96;85428.25;5131211;27;20251;-55
2023/06/01 02:07:55;;;;;;;14.63;8.10;;;;;;;-144.30;93.36;85412.34;5131086;27;20209;-59
2023/06/01 02:10:22;;;;;;;9.63;8.13;;;;;;;-144.30;93.06;85388.47;5131461;27;20190;-59
2023/06/01 02:12:49;;;;;;;12.60;8.07;;;;;;;-144.30;93.00;85362.63;5131339;27;20695;-55
2023/06/01 02:15:16;;;;;;;8.83;7.93;;;;;;;-144.30;92.88;85390.47;5131558;27;20193;-59
2023/06/01 02:17:43;;;;;;;10.30;7.78;;;;;;;-144.30;92.51;85380.53;5131471;27;20197;-54
2023/06/01 02:20:11;;;;;;;8.17;7.47;;;;;;;-144.30;92.12;85420.28;5131129;27;20313;-54
2023/06/01 02:22:38;;;;;;;9.10;7.80;;;;;;;-144.30;91.61;85380.53;5131538;27;20190;-54
2023/06/01 02:25:06;;;;;;;11.60;8.17;;;;;;;-144.30;91.96;85422.28;5131004;27;20320;-54
2023/06/01 02:27:33;;;;;;;10.07;8.67;;;;;;;-144.30;92.16;85400.41;5131181;27;20693;-58
2023/06/01 02:30:00;;;;;;;9.03;8.13;;;;;;;-144.30;92.47;85412.34;5130950;27;20186;-58
2023/06/01 02:32:27;;;;;;;9.30;7.75;;;;;;;-144.30;92.34;85408.34;5130803;27;20558;-54
2023/06/01 02:34:54;;;;;;;8.77;7.95;;;;;;;-144.30;92.32;85426.25;5130991;27;20201;-54
2023/06/01 02:37:22;;;;;;;13.03;8.53;;;;;;;-144.30;92.64;85452.09;5130974;27;20194;-54
2023/06/01 02:39:49;;;;;;;9.47;8.40;;;;;;;-144.30;92.71;85436.19;5130754;27;20222;-54
2023/06/01 02:42:16;;;;;;;11.00;8.17;;;;;;;-144.30;92.88;85384.50;5130719;27;20284;-54
2023/06/01 02:44:42;;;;;;;11.83;8.33;;;;;;;-144.30;92.68;85408.34;5131074;27;20285;-54
2023/06/01 02:47:09;;;;;;;8.80;7.90;;;;;;;-144.30;92.57;85438.19;5130707;27;20236;-54
2023/06/01 02:49:36;;;;;;;14.67;9.07;;;;;;;-144.30;92.92;85420.28;5133706;27;20186;-58
2023/06/01 02:52:03;;;;;;;10.93;8.43;;;;;;;-144.30;93.21;85456.06;5135001;27;20205;-54
2023/06/01 02:54:31;;;;;;;9.73;8.27;;;;;;;-144.30;93.44;85452.09;5134968;27;20197;-53
2023/06/01 02:56:58;;;;;;;8.90;8.07;;;;;;;-144.30;93.62;85448.13;5134832;27;20194;-58
2023/06/01 02:59:25;;;;;;;13.03;9.00;;;;;;;-144.30;93.87;85456.06;5134723;27;20601;-54
2023/06/01 03:01:52;;;;;;;11.90;8.13;;;;;;;-144.30;93.73;85450.09;5134767;27;20345;-58
2023/06/01 03:04:20;;;;;;;10.50;8.50;;;;;;;-144.30;93.44;85440.16;5134894;27;20576;-54
2023/06/01 03:06:49;;;;;;;10.13;9.13;;;;;;;-144.30;93.34;85380.53;5134766;27;20636;-58
2023/06/01 03:09:16;;;;;;;9.97;8.20;;;;;;;-144.30;92.85;85800.00;5134801;27;20190;-54
2023/06/01 03:11:45;;;;;;;9.33;8.43;;;;;;;-144.30;92.71;85430.22;5134891;27;20198;-55
2023/06/01 03:14:12;;;;;;;8.93;8.10;;;;;;;-144.30;92.66;85428.25;5134640;27;20205;-59
2023/06/01 03:16:39;;;;;;;10.60;7.90;;;;;;;-144.30;92.03;85426.25;5134806;27;20575;-55
2023/06/01 03:19:06;;;;;;;8.83;7.93;;;;;;;-144.30;91.87;85410.34;5134365;27;20224;-55
2023/06/01 03:21:33;;;;;;;12.83;8.40;;;;;;;-144.30;91.60;85434.22;5134664;27;20194;-59
2023/06/01 03:24:00;;;;;;;10.03;9.03;;;;;;;-144.30;91.27;85400.41;5134986;27;20190;-58
2023/06/01 03:26:28;;;;;;;8.60;7.70;;;;;;;-144.30;91.17;85420.28;5134417;27;20202;-58
2023/06/01 03:28:56;;;;;;;11.32;7.80;;;;;;;-144.30;91.30;85402.41;5134512;27;20190;-58
2023/06/01 03:31:23;;;;;;;15.43;8.90;;;;;;;-144.30;91.05;85406.38;5134728;27;20198;-59
2023/06/01 03:33:50;;;;;;;10.75;8.43;;;;;;;-144.30;90.62;85380.53;5134049;27;20591;-58
2023/06/01 03:36:17;;;;;;;14.70;8.20;;;;;;;-144.30;90.31;85378.53;5134177;27;20198;-58
2023/06/01 03:38:44;;;;;;;10.13;8.60;;;;;;;-144.30;90.36;85354.69;5134045;27;20210;-58
2023/06/01 03:41:11;;;;;;;11.88;9.40;;;;;;;-144.30;90.12;85376.56;5134035;27;20190;-59
2023/06/01 03:43:37;;;;;;;8.68;7.55;;;;;;;-144.30;88.81;85352.69;5134651;27;20686;-59
2023/06/01 03:46:06;;;;;;;10.82;8.63;;;;;;;-144.30;87.29;85336.78;5134028;27;20245;-53
2023/06/01 03:48:33;;;;;;;14.52;9.15;;;;;;;-144.30;86.71;85297.03;5134090;27;20739;-55
2023/06/01 03:51:00;;;;;;;14.32;9.05;;;;;;;-144.30;84.01;85149.94;5130843;27;20298;-54
2023/06/01 03:53:27;;;;;;;9.27;7.85;;;;;;;-144.30;77.12;85008.81;5124505;27;20198;-55
2023/06/01 03:55:54;;;;;;;13.55;8.18;;;;;;;-144.30;70.75;84804.06;5113116;28;20198;-54
2023/06/01 03:58:21;;;;;;;9.18;8.27;;;;;;;-144.30;65.89;84670.91;5113447;28;20202;-54
2023/06/01 04:00:49;;;;;;;9.93;7.47;;;;;;;-144.30;62.20;84498.00;5112848;28;20625;-55
2023/06/01 04:03:21;;;;;;;8.52;7.55;;;;;;;-144.30;58.39;84335.03;5113316;28;20583;-55
2023/06/01 04:05:49;;;;;;;8.82;7.80;;;;;;;-144.30;55.34;84152.22;5113321;28;20200;-59
2023/06/01 04:08:17;;;;;;;7.65;7.00;;;;;;;-144.30;52.61;84009.13;5112880;28;20252;-59
2023/06/01 04:10:44;;;;;;;7.82;6.88;;;;;;;-144.30;51.04;83977.34;5113095;28;20294;-59
2023/06/01 04:13:11;;;;;;;8.98;7.05;;;;;;;-144.30;49.61;83816.38;5112833;28;20203;-60
2023/06/01 04:15:37;;;;;;;11.13;6.43;;;;;;;-144.30;47.90;83715.03;5127174;27;20218;-60
2023/06/01 04:18:04;;;;;;;8.15;7.18;;;;;;;-144.30;46.66;83577.94;5132919;27;20193;-63
2023/06/01 04:20:34;;;;;;;8.77;7.25;;;;;;;-144.30;45.41;83508.41;5130145;27;20642;-60
2023/06/01 04:23:01;;;;;;;8.13;7.30;;;;;;;-144.30;44.88;83480.59;5125368;27;20208;-60
2023/06/01 04:25:30;;;;;;;13.18;10.07;;;;;;;-144.30;44.50;83420.97;5114761;27;20202;-59
2023/06/01 04:27:57;;;;;;;8.30;7.30;;;;;;;-144.30;43.78;83635.56;5111740;28;20695;-60
2023/06/01 04:30:24;;;;;;;39.15;25.25;;;;;;;-144.30;43.07;83230.25;5111865;28;20191;-59
2023/06/01 04:32:51;;;;;;;8.07;7.07;;;;;;;-144.30;41.79;83099.13;5111921;28;20202;-60
2023/06/01 04:35:18;;;;;;;7.60;6.82;;;;;;;-144.30;40.76;83011.72;5119077;27;20205;-60
2023/06/01 04:37:46;;;;;;;9.18;6.85;;;;;;;-144.30;41.08;83055.44;5117001;27;20206;-60
2023/06/01 04:40:14;;;;;;;7.30;6.68;;;;;;;-144.30;40.86;83023.66;5112562;28;20603;-60
2023/06/01 04:42:42;;;;;;;9.60;7.47;;;;;;;-144.30;40.33;82906.44;5112413;28;20290;-61
2023/06/01 04:45:10;;;;;;;8.38;7.55;;;;;;;-144.30;40.81;83027.63;5112411;28;20278;-60
2023/06/01 04:47:39;;;;;;;7.78;7.18;;;;;;;-144.30;40.89;82966.03;5112266;28;20317;-60
2023/06/01 04:50:08;;;;;;;8.98;7.30;;;;;;;-144.30;40.92;83011.72;5112265;28;20719;-60
2023/06/01 04:52:35;;;;;;;7.25;6.10;;;;;;;-144.30;41.10;82977.97;5112216;28;20286;-60
2023/06/01 04:55:05;;;;;;;8.52;7.07;;;;;;;-144.30;40.26;82860.75;5112141;28;20198;-60
2023/06/01 04:57:33;;;;;;;11.52;7.07;;;;;;;-144.30;39.69;82632.31;5114710;27;20205;-60
2023/06/01 05:00:00;;;;;;;8.55;7.15;;;;;;;-144.30;39.10;82614.44;5121124;27;20225;-59
2023/06/01 05:02:28;;;;;;;8.65;6.47;;;;;;;-144.30;39.20;82644.22;5132367;27;20212;-61
2023/06/01 05:04:55;;;;;;;9.05;6.53;;;;;;;-144.30;38.50;82554.84;5133033;27;20574;-60
2023/06/01 05:07:24;;;;;;;8.13;6.40;;;;;;;-144.30;37.98;82445.59;5132694;27;20239;-61
2023/06/01 05:09:51;;;;;;;7.78;7.10;;;;;;;-144.30;37.02;82292.66;5132544;27;20286;-61
2023/06/01 05:12:19;;;;;;;11.82;7.22;;;;;;;-144.30;36.19;82070.22;5131352;27;20208;-61
2023/06/01 05:14:46;;;;;;;10.43;7.30;;;;;;;-144.30;35.22;82020.56;5132414;27;20305;-60
2023/06/01 05:17:13;;;;;;;12.07;7.85;;;;;;;-144.30;34.69;81818.00;5131826;27;20194;-61
2023/06/01 05:19:40;;;;;;;10.18;6.45;;;;;;;-144.30;35.10;81931.22;5131899;27;20228;-61
2023/06/01 05:22:07;;;;;;;8.40;7.20;;;;;;;-144.30;35.15;81984.81;5132149;27;20193;-61
2023/06/01 05:24:34;;;;;;;7.75;6.88;;;;;;;-144.30;34.50;81839.84;5132234;27;20194;-61
2023/06/01 05:27:01;;;;;;;7.97;7.18;;;;;;;-144.30;34.23;81814.03;5131959;27;20198;-60
2023/06/01 05:29:29;;;;;;;9.32;6.78;;;;;;;-144.30;34.12;81738.56;5131808;27;20663;-60
2023/06/01 05:31:56;;;;;;;9.07;6.80;;;;;;;-144.30;34.69;81823.97;5132385;27;20193;-60
2023/06/01 05:34:23;;;;;;;8.07;6.70;;;;;;;-144.30;34.79;82040.44;5131923;27;20196;-62
2023/06/01 05:36:50;;;;;;;8.80;7.30;;;;;;;-144.30;34.54;81915.31;5131849;27;20206;-60
2023/06/01 05:39:17;;;;;;;7.93;7.20;;;;;;;-144.30;35.05;82040.44;5131396;27;20203;-60
2023/06/01 05:41:44;;;;;;;8.45;7.00;;;;;;;-144.30;35.05;81921.28;5131866;27;20197;-61
2023/06/01 05:44:11;;;;;;;7.80;7.00;;;;;;;-144.30;35.16;81961.00;5131549;27;20200;-60
2023/06/01 05:46:39;;;;;;;7.40;6.97;;;;;;;-144.30;34.91;81970.94;5131389;27;20239;-60
2023/06/01 05:49:06;;;;;;;10.23;7.22;;;;;;;-144.30;35.19;82050.38;5131720;27;20200;-59
2023/06/01 05:51:36;;;;;;;14.07;7.22;;;;;;;-144.30;35.34;82044.41;5131649;27;20189;-60
2023/06/01 05:54:04;;;;;;;8.13;7.45;;;;;;;-144.30;35.50;82111.94;5131622;27;20667;-59
2023/06/01 05:56:31;;;;;;;8.02;6.78;;;;;;;-144.30;35.55;82217.19;5132020;27;20655;-60
2023/06/01 05:58:59;;;;;;;9.15;7.00;;;;;;;-144.30;36.00;82376.09;5131580;27;20198;-61
2023/06/01 06:01:27;;;;;;;6.85;6.35;;;;;;;-144.30;36.48;82463.47;5131753;27;20229;-60
2023/06/01 06:03:55;;;;;;;7.55;6.95;;;;;;;-144.30;36.48;82382.03;5131725;27;20197;-61
2023/06/01 06:06:22;;;;;;;8.13;6.70;;;;;;;-144.30;36.00;82298.63;5131381;27;20590;-60
2023/06/01 06:08:49;;;;;;;11.25;6.50;;;;;;;-144.30;35.47;82248.97;5131783;27;20564;-60
2023/06/01 06:11:17;;;;;;;7.50;6.65;;;;;;;-144.30;35.90;82340.34;5130999;27;20268;-59
2023/06/01 06:13:44;;;;;;;9.38;6.50;;;;;;;-144.30;36.38;82469.44;5131484;27;20276;-60
2023/06/01 06:16:11;;;;;;;8.30;7.05;;;;;;;-144.30;37.08;82523.06;5131547;27;20663;-60
2023/06/01 06:18:38;;;;;;;9.68;6.97;;;;;;;-144.30;37.60;82550.88;5129647;27;20200;-60
2023/06/01 06:21:06;;;;;;;8.38;6.45;;;;;;;-144.30;36.70;82451.56;5123815;27;20226;-59
2023/06/01 06:23:33;;;;;;;8.48;6.07;;;;;;;-144.30;37.21;82465.47;5130210;27;20189;-60
2023/06/01 06:26:00;;;;;;;6.97;6.28;;;;;;;-144.30;37.38;82598.56;5130923;27;20190;-60
2023/06/01 06:28:27;;;;;;;6.78;6.20;;;;;;;-144.30;37.42;82582.66;5127684;27;20221;-60
2023/06/01 06:30:54;;;;;;;10.15;6.78;;;;;;;-144.30;37.31;82542.94;5130221;27;20245;-60
2023/06/01 06:33:21;;;;;;;10.32;6.53;;;;;;;-144.30;36.54;82459.50;5130329;27;20225;-59
2023/06/01 06:35:48;;;;;;;7.43;6.50;;;;;;;-144.30;37.42;82566.78;5129840;27;20610;-58
2023/06/01 06:38:17;;;;;;;8.18;7.00;;;;;;;-144.30;37.96;82759.44;5130468;27;20285;-60
2023/06/01 06:40:44;;;;;;;8.13;7.43;;;;;;;-144.30;38.45;82725.69;5130796;28;20722;-59
2023/06/01 06:43:13;;;;;;;9.63;6.72;;;;;;;-144.30;37.84;82598.56;5130854;27;20636;-60
2023/06/01 06:45:40;;;;;;;7.90;6.22;;;;;;;-144.30;37.92;82689.91;5130677;27;20219;-58
2023/06/01 06:48:07;;;;;;;7.13;6.47;;;;;;;-144.30;37.73;82699.84;5115178;27;20202;-59
2023/06/01 06:50:35;;;;;;;7.25;6.45;;;;;;;-144.30;37.61;82610.47;5110204;28;20286;-60
2023/06/01 06:53:03;;;;;;;8.30;6.35;;;;;;;-144.30;37.48;82662.09;5110390;28;20226;-60
2023/06/01 06:55:32;;;;;;;7.38;6.50;;;;;;;-144.30;37.20;82594.56;5110380;28;20241;-60
2023/06/01 06:57:58;;;;;;;8.68;5.97;;;;;;;-144.30;37.07;83180.59;5110568;28;20221;-60
2023/06/01 07:00:25;;;;;;;6.47;5.97;;;;;;;-144.30;36.85;82689.91;5110143;28;20226;-60
2023/06/01 07:02:52;;;;;;;8.90;6.38;;;;;;;-144.30;37.55;82753.50;5110179;28;20209;-60
2023/06/01 07:05:19;;;;;;;9.98;6.65;;;;;;;-144.30;37.55;82628.34;5109852;28;20568;-59
2023/06/01 07:07:46;;;;;;;7.70;6.78;;;;;;;-144.30;37.76;82777.31;5110175;28;20198;-59
2023/06/01 07:10:13;;;;;;;7.72;6.90;;;;;;;-144.30;38.30;82838.91;5109920;28;20237;-58
2023/06/01 07:12:42;;;;;;;10.73;6.72;;;;;;;-144.30;38.42;82773.34;5109957;28;20194;-59
2023/06/01 07:15:10;;;;;;;7.93;6.65;;;;;;;-144.30;38.44;82775.34;5110156;28;20199;-60
2023/06/01 07:17:37;;;;;;;6.90;6.50;;;;;;;-144.30;38.10;82719.72;5110034;28;20201;-60
2023/06/01 07:20:06;;;;;;;8.38;7.65;;;;;;;-144.30;37.74;82650.19;5109799;28;20237;-60
2023/06/01 07:22:33;;;;;;;13.98;8.07;;;;;;;-144.30;37.72;82685.94;5110245;28;20248;-60
2023/06/01 07:25:00;;;;;;;10.00;6.93;;;;;;;-144.30;37.36;82620.41;5110621;28;20584;-61
2023/06/01 07:27:28;;;;;;;8.77;6.80;;;;;;;-144.30;37.21;82610.47;5110134;28;20710;-59
2023/06/01 07:29:56;;;;;;;8.48;7.60;;;;;;;-144.30;37.11;82570.75;5110109;28;20205;-59
2023/06/01 07:32:23;;;;;;;9.20;6.35;;;;;;;-144.30;37.21;82622.38;5109676;28;20199;-60
2023/06/01 07:34:50;;;;;;;10.18;8.05;;;;;;;-144.30;37.42;82618.41;5111340;28;20671;-60
2023/06/01 07:37:21;;;;;;;9.63;6.45;;;;;;;-144.30;37.06;82586.63;5113785;28;20584;-60
2023/06/01 07:39:48;;;;;;;7.10;6.38;;;;;;;-144.30;37.05;82626.34;5113785;28;20191;-60
2023/06/01 07:42:15;;;;;;;7.45;6.47;;;;;;;-144.30;37.26;82531.00;5126918;27;20198;-60
2023/06/01 07:44:42;;;;;;;6.93;6.25;;;;;;;-144.30;36.61;82509.16;5134169;27;20196;-60
2023/06/01 07:47:11;;;;;;;6.90;6.40;;;;;;;-144.30;35.77;82403.91;5133877;27;20670;-60
2023/06/01 07:49:38;;;;;;;12.75;6.28;;;;;;;-144.30;35.76;82415.81;5134206;27;20202;-59
2023/06/01 07:52:07;;;;;;;7.28;6.55;;;;;;;-144.30;35.78;82459.50;5133990;27;20186;-59
2023/06/01 07:54:35;;;;;;;11.82;7.50;;;;;;;-144.30;35.66;82380.06;5134066;27;20663;-59
2023/06/01 07:57:04;;;;;;;8.85;7.55;;;;;;;-144.30;35.96;82411.84;5133978;27;20701;-59
2023/06/01 07:59:30;;;;;;;7.07;6.47;;;;;;;-144.30;35.46;82042.41;5133609;27;20202;-59
2023/06/01 08:01:58;;;;;;;11.23;6.78;;;;;;;-144.30;35.61;82445.59;5133889;27;20353;-59
2023/06/01 08:04:27;;;;;;;9.00;6.55;;;;;;;-144.30;35.82;82477.38;5133653;27;20238;-59
2023/06/01 08:06:55;;;;;;;10.02;6.35;;;;;;;-144.30;35.61;82403.91;5133667;27;20194;-59
2023/06/01 08:09:23;;;;;;;7.68;7.07;;;;;;;-144.30;35.05;82211.25;5130555;27;20201;-60
2023/06/01 08:11:51;;;;;;;8.27;6.85;;;;;;;-144.30;35.06;82250.97;5133268;27;20243;-60
2023/06/01 08:14:18;;;;;;;6.97;5.78;;;;;;;-144.30;34.84;82171.50;5129572;27;20213;-60
2023/06/01 08:16:46;;;;;;;11.02;5.65;;;;;;;-144.30;34.31;82121.88;5133194;27;20691;-60
2023/06/01 08:19:13;;;;;;;9.35;6.15;;;;;;;-144.30;34.20;82076.19;5133430;27;20523;-61
2023/06/01 08:21:41;;;;;;;7.28;5.85;;;;;;;-144.30;33.91;82143.72;5132716;27;20221;-60
2023/06/01 08:24:10;;;;;;;10.93;6.28;;;;;;;-144.30;34.52;82153.63;5133237;27;20216;-61
2023/06/01 08:26:37;;;;;;;8.68;5.65;;;;;;;-144.30;34.11;82032.50;5133266;27;20582;-60
2023/06/01 08:29:04;;;;;;;6.30;5.82;;;;;;;-144.30;34.03;82046.41;5133684;27;20586;-60
2023/06/01 08:31:31;;;;;;;6.75;5.97;;;;;;;-144.30;34.76;82197.34;5133603;27;20190;-60
2023/06/01 08:33:57;;;;;;;7.20;6.22;;;;;;;-144.30;34.81;82264.88;5133159;27;20865;-60
2023/06/01 08:36:25;;;;;;;7.43;6.28;;;;;;;-144.30;35.17;82378.06;5132556;27;20571;-60
2023/06/01 08:38:56;;;;;;;8.80;6.72;;;;;;;-144.30;35.88;82493.28;5133224;27;20198;-60
2023/06/01 08:41:27;;;;;;;9.02;7.05;;;;;;;-144.30;36.55;82544.91;5132738;27;20274;-61
2023/06/01 08:43:59;;;;;;;6.85;6.25;;;;;;;-144.30;36.58;82538.97;5133355;27;20194;-60
2023/06/01 08:46:27;;;;;;;10.18;6.22;;;;;;;-144.30;35.72;82646.22;5132757;27;20328;-61
2023/06/01 08:48:55;;;;;;;7.68;6.00;;;;;;;-144.30;37.04;82711.78;5132785;27;20196;-61
2023/06/01 08:51:23;;;;;;;6.85;6.20;;;;;;;-144.30;36.37;82658.13;5132835;27;20250;-61
2023/06/01 08:53:51;;;;;;;8.32;7.07;;;;;;;-144.30;36.39;82596.56;5132752;27;20289;-60
2023/06/01 08:56:21;;;;;;;6.72;6.30;;;;;;;-144.30;36.36;82598.56;5133022;27;20663;-60
2023/06/01 08:58:50;;;;;;;7.53;6.50;;;;;;;-144.30;36.63;82666.09;5133273;27;20201;-60
2023/06/01 09:01:21;;;;;;;11.15;6.60;;;;;;;-144.30;37.04;82640.25;5131647;27;20714;-61
2023/06/01 09:03:48;;;;;;;7.82;6.80;;;;;;;-144.30;37.67;82650.19;5132057;27;20190;-61
2023/06/01 09:06:15;;;;;;;5.75;5.00;;;;;;;-144.30;36.60;82815.06;5132493;27;20575;-61
2023/06/01 09:08:42;;;;;;;8.70;5.43;;;;;;;-144.30;36.14;82880.63;5132780;27;20204;-61
2023/06/01 09:11:09;;;;;;;6.43;5.10;;;;;;;-144.30;36.40;82956.09;5132593;27;20194;-59
2023/06/01 09:13:39;;;;;;;6.38;5.90;;;;;;;-144.30;37.92;83069.34;5132575;27;20718;-60
2023/06/01 09:16:06;;;;;;;6.63;5.35;;;;;;;-144.30;36.24;83071.31;5132471;27;20609;-59
2023/06/01 09:18:33;;;;;;;5.68;5.25;;;;;;;-144.30;36.60;82962.06;5132316;27;20579;-61
2023/06/01 09:21:12;;;;;;;10.07;7.35;;;;;;;-144.30;37.79;82924.31;5132252;27;20320;-60
2023/06/01 09:23:39;;;;;;;6.03;5.25;;;;;;;-144.30;36.48;83027.63;5132177;27;20263;-60
2023/06/01 09:26:06;;;;;;;5.55;5.05;;;;;;;-144.30;36.51;82999.81;5131764;27;20214;-60
2023/06/01 09:28:56;;;;;;;5.90;5.18;;;;;;;-144.30;36.67;82975.97;5131625;27;20190;-59
2023/06/01 09:31:40;;;;;;;5.68;5.25;;;;;;;-144.30;37.06;82995.84;5130401;27;20201;-59
2023/06/01 09:34:08;;;;;;;5.32;5.03;;;;;;;-144.30;35.20;83045.50;5131302;27;20194;-60
2023/06/01 09:36:35;;;;;;;4.65;4.38;;;;;;;-144.30;35.17;83023.66;5131877;27;20197;-62
2023/06/01 09:39:04;;;;;;;5.32;4.90;;;;;;;-144.30;35.72;83067.34;5131857;27;20196;-59
2023/06/01 09:41:46;;;;;;;4.90;4.40;;;;;;;-144.30;36.29;83107.09;5131752;27;20221;-59
2023/06/01 09:44:14;;;;;;;4.43;4.13;;;;;;;-144.30;34.39;83158.75;5111099;28;20255;-60
2023/06/01 09:46:49;;;;;;;5.78;4.63;;;;;;;-144.30;35.17;83103.13;5131550;27;20226;-59
2023/06/01 09:49:20;;;;;;;4.63;4.22;;;;;;;-144.30;33.87;83035.56;5131523;27;20198;-59
2023/06/01 09:51:48;;;;;;;4.13;3.83;;;;;;;-144.30;33.77;82979.94;5131584;27;20246;-59
2023/06/01 09:54:30;;;;;;;6.35;4.25;;;;;;;-144.30;34.75;83220.31;5131268;27;20198;-60
2023/06/01 09:56:58;;;;;;;4.22;3.78;;;;;;;-144.30;34.18;83198.47;5131423;27;20198;-59
2023/06/01 09:59:29;;;;;;;5.70;4.45;;;;;;;-144.30;35.20;83252.09;5131261;27;20208;-59
2023/06/01 10:01:58;;;;;;;5.15;4.45;;;;;;;-144.30;36.21;83158.75;5131383;27;20225;-60
2023/06/01 10:04:26;;;;;;;4.30;4.00;;;;;;;-144.30;35.32;83337.53;5131221;27;20613;-59
2023/06/01 10:06:54;;;;;;;4.55;4.20;;;;;;;-144.30;36.25;83289.84;5131468;27;20644;-59
2023/06/01 10:09:24;;;;;;;7.30;3.80;;;;;;;-144.30;36.15;83357.41;5131503;27;20667;-59
2023/06/01 10:11:53;;;;;;;22.23;4.20;;;;;;;-144.30;37.23;83389.19;5131402;27;20202;-59
2023/06/01 10:14:20;;;;;;;7.47;4.55;;;;;;;-144.30;36.94;83391.19;5131254;27;20212;-60
2023/06/01 10:16:51;;;;;;;4.25;3.95;;;;;;;-144.30;35.43;83397.16;5131347;27;20190;-60
2023/06/01 10:19:19;;;;;;;4.10;3.75;;;;;;;-144.30;37.67;83440.84;5130803;27;20209;-58
2023/06/01 10:21:46;;;;;;;4.45;3.95;;;;;;;-144.30;38.12;83452.78;5131040;27;20282;-58
2023/06/01 10:24:14;;;;;;;7.32;4.90;;;;;;;-144.30;37.88;83468.66;5131158;27;20290;-58
2023/06/01 10:26:52;;;;;;;5.15;4.30;;;;;;;-144.30;38.38;83480.59;5130973;27;20259;-58
2023/06/01 10:29:20;;;;;;;4.60;4.20;;;;;;;-144.30;37.53;84124.38;5130814;27;20196;-58
2023/06/01 10:31:48;;;;;;;4.38;3.97;;;;;;;-144.30;37.95;83311.72;5130731;27;20205;-58
2023/06/01 10:34:15;;;;;;;4.65;4.35;;;;;;;-144.30;37.71;83482.56;5130927;27;20193;-57
2023/06/01 10:37:21;;;;;;;4.82;4.43;;;;;;;-144.30;38.15;83488.53;5131141;27;20710;-58
2023/06/01 10:39:48;;;;;;;4.45;4.13;;;;;;;-144.30;36.04;83520.31;5125660;27;20196;-58
2023/06/01 10:42:40;;;;;;;6.30;4.35;;;;;;;-144.30;38.08;83528.28;5131064;27;20228;-60
2023/06/01 10:45:38;;;;;;;5.07;4.53;;;;;;;-144.30;36.28;83518.34;5131117;27;20273;-58
2023/06/01 10:48:10;;;;;;;5.50;4.05;;;;;;;-144.30;37.25;83587.88;5130597;27;20196;-57
2023/06/01 10:50:38;;;;;;;7.60;4.25;;;;;;;-144.30;37.69;84086.63;5130542;27;20206;-58
2023/06/01 10:53:32;;;;;;;4.82;4.43;;;;;;;-144.30;37.52;83566.03;5130581;28;20190;-57
2023/06/01 10:56:28;;;;;;;5.13;4.50;;;;;;;-144.30;37.59;83556.09;5094113;27;20189;-58
2023/06/01 10:59:13;;;;;;;4.15;3.75;;;;;;;-144.30;36.68;83550.13;5066825;28;20192;-57
2023/06/01 11:01:44;;;;;;;4.70;4.05;;;;;;;-144.30;36.13;83556.09;5102996;28;20210;-57
2023/06/01 11:04:13;;;;;;;7.72;4.13;;;;;;;-144.30;36.10;83573.97;5110047;28;20287;-58
2023/06/01 11:06:42;;;;;;;5.63;4.03;;;;;;;-144.30;36.55;83601.78;5109902;28;20201;-58
2023/06/01 11:09:11;;;;;;;4.57;4.18;;;;;;;-144.30;36.71;83625.63;5109776;28;25127;-58
2023/06/01 11:12:00;;;;;;;5.38;4.47;;;;;;;-144.30;37.38;83609.75;5114089;28;25118;-58
2023/06/01 11:14:30;;;;;;;6.50;4.40;;;;;;;-144.30;37.67;83603.78;5125379;27;20229;-58
2023/06/01 11:17:35;;;;;;;8.63;4.28;;;;;;;-144.30;37.93;83577.94;5134326;27;25121;-59
2023/06/01 11:20:11;;;;;;;4.65;4.20;;;;;;;-144.30;36.95;83542.19;5134461;27;20208;-59
2023/06/01 11:22:38;;;;;;;7.90;4.57;;;;;;;-144.30;35.46;83575.97;5134656;27;20599;-58
2023/06/01 11:25:09;;;;;;;5.50;4.22;;;;;;;-144.30;34.72;83560.06;5134136;27;25115;-58